createdAt,value
2019-04-16T00:01:01.352Z,59.95
2019-04-16T00:03:31.116Z,60.31
2019-04-16T00:06:14.222Z,60.31
2019-04-16T00:08:54.139Z,60.44
2019-04-16T00:11:58.413Z,60.65
2019-04-16T00:14:31.122Z,60.59
2019-04-16T00:17:01.040Z,60.86
2019-04-16T00:19:34.703Z,61.16
2019-04-16T00:22:17.775Z,60.52
2019-04-16T00:24:53.521Z,61.27
2019-04-16T00:27:28.266Z,61.86
2019-04-16T00:30:09.989Z,61.55
2019-04-16T00:32:42.729Z,61.67
2019-04-16T00:35:28.023Z,62.14
2019-04-16T00:37:58.127Z,61.94
2019-04-16T00:40:27.516Z,62.51
2019-04-16T00:42:59.801Z,64.15
2019-04-16T00:45:29.341Z,64.15
2019-04-16T00:47:58.928Z,64.12
2019-04-16T00:50:30.424Z,63.77
2019-04-16T00:53:00.095Z,64.08
2019-04-16T00:55:29.644Z,63.61
2019-04-16T00:57:59.208Z,63.23
2019-04-16T01:00:30.611Z,63.10
2019-04-16T01:02:59.827Z,62.48
2019-04-16T01:05:29.457Z,61.21
2019-04-16T01:07:58.865Z,62.01
2019-04-16T01:10:36.407Z,62.01
2019-04-16T01:13:05.798Z,62.52
2019-04-16T01:15:35.351Z,62.23
2019-04-16T01:18:08.020Z,62.23
2019-04-16T01:20:44.067Z,62.24
2019-04-16T01:23:17.486Z,61.77
2019-04-16T01:25:45.213Z,62.61
2019-04-16T01:28:17.100Z,62.61
2019-04-16T01:31:07.909Z,62.60
2019-04-16T01:33:48.550Z,63.35
2019-04-16T01:36:39.393Z,63.35
2019-04-16T01:39:17.677Z,62.80
2019-04-16T01:41:40.983Z,62.94
2019-04-16T01:44:10.824Z,62.53
2019-04-16T01:46:40.317Z,62.37
2019-04-16T01:49:11.101Z,61.98
2019-04-16T01:51:58.227Z,61.98
2019-04-16T01:54:27.626Z,62.22
2019-04-16T01:56:59.616Z,61.81
2019-04-16T01:59:28.811Z,61.85
2019-04-16T02:01:58.263Z,61.74
2019-04-16T02:04:27.639Z,61.68
2019-04-16T02:06:57.838Z,61.47
2019-04-16T02:09:27.267Z,61.29
2019-04-16T02:11:56.669Z,60.66
2019-04-16T02:14:26.105Z,60.66
2019-04-16T02:16:55.983Z,60.85
2019-04-16T02:19:26.068Z,60.92
2019-04-16T02:21:55.610Z,60.90
2019-04-16T02:24:25.035Z,60.78
2019-04-16T02:26:55.032Z,60.66
2019-04-16T02:29:29.814Z,60.81
2019-04-16T02:31:58.386Z,60.85
2019-04-16T02:34:27.784Z,60.84
2019-04-16T02:37:00.873Z,60.86
2019-04-16T02:39:47.223Z,60.83
2019-04-16T02:41:59.442Z,60.72
2019-04-16T02:44:28.915Z,60.66
2019-04-16T02:47:05.480Z,60.68
2019-04-16T02:49:29.394Z,60.90
2019-04-16T02:52:06.412Z,61.27
2019-04-16T02:54:42.772Z,61.27
2019-04-16T02:57:35.006Z,61.05
2019-04-16T03:00:09.751Z,61.32
2019-04-16T03:02:53.895Z,61.30
2019-04-16T03:05:36.004Z,61.30
2019-04-16T03:08:05.958Z,61.32
2019-04-16T03:10:35.785Z,61.22
2019-04-16T03:13:05.242Z,61.20
2019-04-16T03:15:52.879Z,60.91
2019-04-16T03:18:26.476Z,60.91
2019-04-16T03:20:56.619Z,60.91
2019-04-16T03:23:26.359Z,60.53
2019-04-16T03:25:55.726Z,60.53
2019-04-16T03:28:27.133Z,61.00
2019-04-16T03:30:56.695Z,61.16
2019-04-16T03:33:26.118Z,61.10
2019-04-16T03:35:57.823Z,60.67
2019-04-16T03:38:27.082Z,61.27
2019-04-16T03:40:59.579Z,61.27
2019-04-16T03:43:29.489Z,61.15
2019-04-16T03:46:00.246Z,61.15
2019-04-16T03:48:29.622Z,61.21
2019-04-16T03:51:00.555Z,60.95
2019-04-16T03:53:30.454Z,60.95
2019-04-16T03:56:00.703Z,61.02
2019-04-16T03:58:30.118Z,61.05
2019-04-16T04:00:59.612Z,60.98
2019-04-16T04:03:29.079Z,60.96
2019-04-16T04:05:58.803Z,60.86
2019-04-16T04:08:28.513Z,60.86
2019-04-16T04:11:10.531Z,60.61
2019-04-16T04:13:40.019Z,60.54
2019-04-16T04:16:16.521Z,60.54
2019-04-16T04:18:46.148Z,60.12
2019-04-16T04:21:22.034Z,60.12
2019-04-16T04:23:49.939Z,59.42
2019-04-16T04:26:24.684Z,59.28
2019-04-16T04:28:54.054Z,59.18
2019-04-16T04:31:23.808Z,59.47
2019-04-16T04:33:53.311Z,59.60
2019-04-16T04:36:26.442Z,59.67
2019-04-16T04:38:53.819Z,59.52
2019-04-16T04:41:37.731Z,59.59
2019-04-16T04:44:07.217Z,59.52
2019-04-16T04:46:37.202Z,59.64
2019-04-16T04:49:06.578Z,59.61
2019-04-16T04:51:42.698Z,59.54
2019-04-16T04:54:08.872Z,59.46
2019-04-16T04:56:38.308Z,59.17
2019-04-16T04:59:07.703Z,59.20
2019-04-16T05:01:42.046Z,59.17
2019-04-16T05:04:27.987Z,59.02
2019-04-16T05:07:00.031Z,58.98
2019-04-16T05:09:32.617Z,58.94
2019-04-16T05:12:00.484Z,59.06
2019-04-16T05:14:30.356Z,59.07
2019-04-16T05:16:59.801Z,59.19
2019-04-16T05:19:29.477Z,59.21
2019-04-16T05:21:59.222Z,59.14
2019-04-16T05:24:29.817Z,59.14
2019-04-16T05:26:59.402Z,59.14
2019-04-16T05:29:48.951Z,58.87
2019-04-16T05:32:17.581Z,58.65
2019-04-16T05:34:48.575Z,57.84
2019-04-16T05:37:19.802Z,57.84
2019-04-16T05:39:49.349Z,57.69
2019-04-16T05:42:18.952Z,57.69
2019-04-16T05:44:48.573Z,58.10
2019-04-16T05:47:18.379Z,58.01
2019-04-16T05:49:48.155Z,58.11
2019-04-16T05:52:21.379Z,58.27
2019-04-16T05:55:20.073Z,58.23
2019-04-16T05:57:51.777Z,58.13
2019-04-16T06:00:29.105Z,57.63
2019-04-16T06:02:58.497Z,57.58
2019-04-16T06:05:28.230Z,57.42
2019-04-16T06:08:09.054Z,57.05
2019-04-16T06:10:41.369Z,57.05
2019-04-16T06:13:47.941Z,56.91
2019-04-16T06:16:36.702Z,56.80
2019-04-16T06:19:14.458Z,56.95
2019-04-16T06:22:01.528Z,57.25
2019-04-16T06:24:41.543Z,57.42
2019-04-16T06:27:33.139Z,57.19
2019-04-16T06:30:20.549Z,56.92
2019-04-16T06:32:56.282Z,57.02
2019-04-16T06:35:45.476Z,57.02
2019-04-16T06:38:18.126Z,57.56
2019-04-16T06:41:06.662Z,57.40
2019-04-16T06:43:39.343Z,57.03
2019-04-16T06:46:33.609Z,56.72
2019-04-16T06:49:21.044Z,56.20
2019-04-16T06:52:16.036Z,56.39
2019-04-16T06:55:15.644Z,56.05
2019-04-16T06:58:07.760Z,55.93
2019-04-16T07:01:05.873Z,55.75
2019-04-16T07:04:01.327Z,55.30
2019-04-16T07:07:01.705Z,55.15
2019-04-16T07:09:41.465Z,54.95
2019-04-16T07:12:15.324Z,54.20
2019-04-16T07:14:45.518Z,53.88
2019-04-16T07:17:18.353Z,53.21
2019-04-16T07:19:47.536Z,52.62
2019-04-16T07:22:20.933Z,52.63
2019-04-16T07:24:50.609Z,52.47
2019-04-16T07:27:21.260Z,51.95
2019-04-16T07:29:55.643Z,51.61
2019-04-16T07:32:56.131Z,51.19
2019-04-16T07:35:59.504Z,50.87
2019-04-16T07:38:47.862Z,50.80
2019-04-16T07:41:43.208Z,50.59
2019-04-16T07:44:18.127Z,49.83
2019-04-16T07:47:12.616Z,49.69
2019-04-16T07:50:02.973Z,48.83
2019-04-16T07:52:57.620Z,48.75
2019-04-16T07:55:44.967Z,48.38
2019-04-16T07:58:15.514Z,48.08
2019-04-16T08:00:45.067Z,48.02
2019-04-16T08:03:14.475Z,48.10
2019-04-16T08:05:43.912Z,48.09
2019-04-16T08:08:13.341Z,47.77
2019-04-16T08:10:43.005Z,47.48
2019-04-16T08:13:19.831Z,47.54
2019-04-16T08:15:49.399Z,47.03
2019-04-16T08:18:19.007Z,47.04
2019-04-16T08:21:10.107Z,46.83
2019-04-16T08:23:39.619Z,46.96
2019-04-16T08:26:12.946Z,46.71
2019-04-16T08:28:41.753Z,46.45
2019-04-16T08:31:16.442Z,46.42
2019-04-16T08:33:46.204Z,46.51
2019-04-16T08:36:15.579Z,45.45
2019-04-16T08:38:46.442Z,45.26
2019-04-16T08:41:19.993Z,45.14
2019-04-16T08:43:47.293Z,44.91
2019-04-16T08:46:17.108Z,44.83
2019-04-16T08:48:49.331Z,44.54
2019-04-16T08:51:29.750Z,44.36
2019-04-16T08:53:49.800Z,43.72
2019-04-16T08:56:21.612Z,44.00
2019-04-16T08:58:57.322Z,43.58
2019-04-16T09:01:29.032Z,43.74
2019-04-16T09:04:01.221Z,43.79
2019-04-16T09:06:29.506Z,43.72
2019-04-16T09:09:24.323Z,43.38
2019-04-16T09:11:57.802Z,43.39
2019-04-16T09:14:29.391Z,42.92
2019-04-16T09:17:05.318Z,42.66
2019-04-16T09:19:35.819Z,42.34
2019-04-16T09:22:08.999Z,41.91
2019-04-16T09:24:44.411Z,41.58
2019-04-16T09:27:28.637Z,41.29
2019-04-16T09:30:16.882Z,41.74
2019-04-16T09:33:02.513Z,41.71
2019-04-16T09:35:50.825Z,42.19
2019-04-16T09:38:45.155Z,42.43
2019-04-16T09:41:19.760Z,42.52
2019-04-16T09:43:53.650Z,41.83
2019-04-16T09:46:48.395Z,40.38
2019-04-16T09:48:54.223Z,40.68
2019-04-16T09:51:25.380Z,40.03
2019-04-16T09:53:54.761Z,39.74
2019-04-16T09:56:29.881Z,39.44
2019-04-16T09:59:16.746Z,39.41
2019-04-16T10:02:01.946Z,39.54
2019-04-16T10:04:32.681Z,39.91
2019-04-16T10:07:02.176Z,39.69
2019-04-16T10:09:31.573Z,39.63
2019-04-16T10:12:00.957Z,39.56
2019-04-16T10:14:30.362Z,38.82
2019-04-16T10:16:59.745Z,38.78
2019-04-16T10:19:29.241Z,38.82
2019-04-16T10:21:58.600Z,39.10
2019-04-16T10:24:49.772Z,38.72
2019-04-16T10:27:37.043Z,38.38
2019-04-16T10:30:16.081Z,38.56
2019-04-16T10:32:45.589Z,39.24
2019-04-16T10:35:15.333Z,39.24
2019-04-16T10:37:44.785Z,39.47
2019-04-16T10:40:36.647Z,39.42
2019-04-16T10:43:43.990Z,39.90
2019-04-16T10:46:19.882Z,40.48
2019-04-16T10:49:07.241Z,40.73
2019-04-16T10:51:54.458Z,41.00
2019-04-16T10:54:37.100Z,41.37
2019-04-16T10:57:22.752Z,41.70
2019-04-16T11:00:11.676Z,42.08
2019-04-16T11:02:47.913Z,41.15
2019-04-16T11:05:36.335Z,40.79
2019-04-16T11:08:07.382Z,40.99
2019-04-16T11:10:46.820Z,41.47
2019-04-16T11:13:25.635Z,41.61
2019-04-16T11:15:57.146Z,42.07
2019-04-16T11:18:26.534Z,41.93
2019-04-16T11:20:56.172Z,41.89
2019-04-16T11:23:25.884Z,41.93
2019-04-16T11:26:10.864Z,41.93
2019-04-16T11:28:40.408Z,41.30
2019-04-16T11:31:13.299Z,41.30
2019-04-16T11:33:42.668Z,40.73
2019-04-16T11:36:19.360Z,40.40
2019-04-16T11:38:46.283Z,40.10
2019-04-16T11:41:15.989Z,39.64
2019-04-16T11:43:45.671Z,38.96
2019-04-16T11:46:15.176Z,38.91
2019-04-16T11:48:44.508Z,38.94
2019-04-16T11:51:13.996Z,38.35
2019-04-16T11:53:43.521Z,38.53
2019-04-16T11:56:15.483Z,38.58
2019-04-16T11:58:48.856Z,38.93
2019-04-16T12:01:52.873Z,39.39
2019-04-16T12:04:27.164Z,39.06
2019-04-16T12:07:10.899Z,38.80
2019-04-16T12:09:58.324Z,38.82
2019-04-16T12:12:46.775Z,38.17
2019-04-16T12:15:35.278Z,38.33
2019-04-16T12:18:26.700Z,37.98
2019-04-16T12:21:24.091Z,37.50
2019-04-16T12:24:02.993Z,37.36
2019-04-16T12:27:10.282Z,36.65
2019-04-16T12:29:59.059Z,36.78
2019-04-16T12:32:53.484Z,37.04
2019-04-16T12:35:54.370Z,36.65
2019-04-16T12:38:27.519Z,36.89
2019-04-16T12:41:14.878Z,36.98
2019-04-16T12:43:50.940Z,36.87
2019-04-16T12:46:41.412Z,36.38
2019-04-16T12:49:33.123Z,36.20
2019-04-16T12:52:22.907Z,36.43
2019-04-16T12:55:14.030Z,36.07
2019-04-16T12:58:04.876Z,35.62
2019-04-16T13:00:44.296Z,35.37
2019-04-16T13:03:20.985Z,35.96
2019-04-16T13:06:04.968Z,36.24
2019-04-16T13:08:53.630Z,34.87
2019-04-16T13:11:35.206Z,34.71
2019-04-16T13:14:23.106Z,34.45
2019-04-16T13:17:28.050Z,34.03
2019-04-16T13:20:13.946Z,33.72
2019-04-16T13:22:47.104Z,33.97
2019-04-16T13:25:22.782Z,33.80
2019-04-16T13:27:52.529Z,33.92
2019-04-16T13:30:21.922Z,33.38
2019-04-16T13:32:51.335Z,33.32
2019-04-16T13:35:20.827Z,32.42
2019-04-16T13:37:50.291Z,32.86
2019-04-16T13:40:20.192Z,33.19
2019-04-16T13:42:50.927Z,33.07
2019-04-16T13:45:27.733Z,33.13
2019-04-16T13:47:57.314Z,33.05
2019-04-16T13:50:53.461Z,33.29
2019-04-16T13:53:50.719Z,33.30
2019-04-16T13:56:50.363Z,33.58
2019-04-16T13:59:34.343Z,33.39
2019-04-16T14:02:25.655Z,33.69
2019-04-16T14:04:55.107Z,33.43
2019-04-16T14:07:25.521Z,33.01
2019-04-16T14:09:54.935Z,33.06
2019-04-16T14:12:41.226Z,33.28
2019-04-16T14:14:56.440Z,33.29
2019-04-16T14:17:26.896Z,32.72
2019-04-16T14:19:56.554Z,32.96
2019-04-16T14:22:29.208Z,32.99
2019-04-16T14:24:58.607Z,33.07
2019-04-16T14:27:30.955Z,33.40
2019-04-16T14:30:00.295Z,33.34
2019-04-16T14:32:29.750Z,33.71
2019-04-16T14:35:01.151Z,33.86
2019-04-16T14:37:32.874Z,33.36
2019-04-16T14:40:15.540Z,33.14
2019-04-16T14:42:48.057Z,33.09
2019-04-16T14:45:50.139Z,33.49
2019-04-16T14:48:08.612Z,33.25
2019-04-16T14:50:36.962Z,33.30
2019-04-16T14:53:08.046Z,33.25
2019-04-16T14:56:05.271Z,32.94
2019-04-16T14:58:55.828Z,32.64
2019-04-16T15:01:35.083Z,32.94
2019-04-16T15:04:43.801Z,33.32
2019-04-16T15:07:32.465Z,33.22
2019-04-16T15:10:19.375Z,33.21
2019-04-16T15:12:58.760Z,33.59
2019-04-16T15:15:40.708Z,34.04
2019-04-16T15:18:40.822Z,33.71
2019-04-16T15:21:32.498Z,34.88
2019-04-16T15:24:09.037Z,34.53
2019-04-16T15:27:00.293Z,34.30
2019-04-16T15:29:47.282Z,34.53
2019-04-16T15:32:49.938Z,34.96
2019-04-16T15:35:24.123Z,35.06
2019-04-16T15:38:21.759Z,34.94
2019-04-16T15:40:53.003Z,34.75
2019-04-16T15:43:40.147Z,34.88
2019-04-16T15:46:30.336Z,34.73
2019-04-16T15:49:09.662Z,34.52
2019-04-16T15:51:48.023Z,33.63
2019-04-16T15:54:51.234Z,32.96
2019-04-16T15:57:36.180Z,32.51
2019-04-16T16:00:28.803Z,32.15
2019-04-16T16:03:27.200Z,31.85
2019-04-16T16:06:03.390Z,30.82
2019-04-16T16:08:38.449Z,29.87
2019-04-16T16:11:17.383Z,29.79
2019-04-16T16:13:47.080Z,29.20
2019-04-16T16:16:18.119Z,29.16
2019-04-16T16:18:51.002Z,28.97
2019-04-16T16:21:20.386Z,28.78
2019-04-16T16:23:49.870Z,28.95
2019-04-16T16:26:20.049Z,28.81
2019-04-16T16:28:49.425Z,28.52
2019-04-16T16:31:18.893Z,28.40
2019-04-16T16:33:48.344Z,27.66
2019-04-16T16:36:17.973Z,27.83
2019-04-16T16:38:48.513Z,27.82
2019-04-16T16:41:18.816Z,27.50
2019-04-16T16:43:48.242Z,27.72
2019-04-16T16:46:38.686Z,27.55
2019-04-16T16:49:10.187Z,27.53
2019-04-16T16:51:42.567Z,28.31
2019-04-16T16:54:19.080Z,28.59
2019-04-16T16:57:03.584Z,28.83
2019-04-16T16:59:35.392Z,28.94
2019-04-16T17:02:24.794Z,29.43
2019-04-16T17:04:55.013Z,29.54
2019-04-16T17:07:24.523Z,29.79
2019-04-16T17:09:55.849Z,29.72
2019-04-16T17:12:25.309Z,30.22
2019-04-16T17:14:54.676Z,31.63
2019-04-16T17:17:24.116Z,33.05
2019-04-16T17:19:53.730Z,34.51
2019-04-16T17:22:23.459Z,35.70
2019-04-16T17:24:52.863Z,36.68
2019-04-16T17:27:22.327Z,37.04
2019-04-16T17:29:51.717Z,37.39
2019-04-16T17:32:21.309Z,37.77
2019-04-16T17:34:50.916Z,38.24
2019-04-16T17:37:21.443Z,38.62
2019-04-16T17:39:53.783Z,39.12
2019-04-16T17:42:48.157Z,39.47
2019-04-16T17:45:46.228Z,39.67
2019-04-16T17:48:25.229Z,39.15
2019-04-16T17:51:13.503Z,38.94
2019-04-16T17:54:05.020Z,38.71
2019-04-16T17:57:02.488Z,38.83
2019-04-16T17:59:42.072Z,39.28
2019-04-16T18:02:41.678Z,39.97
2019-04-16T18:05:30.322Z,40.55
2019-04-16T18:08:30.589Z,41.02
2019-04-16T18:11:11.184Z,41.52
2019-04-16T18:13:56.718Z,41.83
2019-04-16T18:16:36.210Z,42.18
2019-04-16T18:19:24.945Z,42.53
2019-04-16T18:22:16.993Z,42.82
2019-04-16T18:25:14.704Z,43.10
2019-04-16T18:28:05.434Z,43.41
2019-04-16T18:30:50.121Z,43.68
2019-04-16T18:33:43.228Z,44.17
2019-04-16T18:36:43.788Z,44.48
2019-04-16T18:39:37.142Z,44.83
2019-04-16T18:42:15.862Z,45.13
2019-04-16T18:45:07.438Z,45.47
2019-04-16T18:48:01.401Z,45.76
2019-04-16T18:51:15.724Z,46.11
2019-04-16T18:53:45.299Z,46.33
2019-04-16T18:56:14.797Z,46.70
2019-04-16T18:58:44.192Z,47.05
2019-04-16T19:01:17.574Z,47.17
2019-04-16T19:03:47.253Z,47.43
2019-04-16T19:06:17.097Z,47.64
2019-04-16T19:08:46.479Z,48.09
2019-04-16T19:11:16.295Z,49.32
2019-04-16T19:13:45.893Z,50.04
2019-04-16T19:16:15.512Z,50.19
2019-04-16T19:18:45.062Z,50.79
2019-04-16T19:21:18.212Z,51.07
2019-04-16T19:23:47.839Z,51.39
2019-04-16T19:26:17.734Z,51.66
2019-04-16T19:28:47.822Z,51.97
2019-04-16T19:31:22.769Z,52.46
2019-04-16T19:33:48.524Z,52.54
2019-04-16T19:36:27.537Z,52.82
2019-04-16T19:38:55.717Z,53.33
2019-04-16T19:41:25.096Z,53.51
2019-04-16T19:43:54.708Z,53.69
2019-04-16T19:46:24.131Z,54.37
2019-04-16T19:48:56.753Z,54.75
2019-04-16T19:51:25.784Z,54.91
2019-04-16T19:53:56.063Z,54.89
2019-04-16T19:56:25.476Z,54.95
2019-04-16T19:58:54.880Z,54.52
2019-04-16T20:01:24.284Z,54.92
2019-04-16T20:03:53.694Z,54.89
2019-04-16T20:06:26.163Z,54.75
2019-04-16T20:08:54.396Z,55.09
2019-04-16T20:11:23.993Z,55.04
2019-04-16T20:13:53.653Z,55.34
2019-04-16T20:16:23.146Z,55.77
2019-04-16T20:18:52.540Z,56.15
2019-04-16T20:21:22.160Z,56.28
2019-04-16T20:23:51.534Z,56.79
2019-04-16T20:26:21.051Z,56.63
2019-04-16T20:28:50.482Z,57.14
2019-04-16T20:31:27.001Z,57.96
2019-04-16T20:33:56.458Z,57.91
2019-04-16T20:36:25.863Z,58.12
2019-04-16T20:38:55.522Z,58.34
2019-04-16T20:41:25.268Z,58.32
2019-04-16T20:43:54.630Z,58.75
2019-04-16T20:46:46.060Z,59.14
2019-04-16T20:49:16.878Z,59.14
2019-04-16T20:51:51.589Z,59.03
2019-04-16T20:54:21.832Z,59.17
2019-04-16T20:56:53.227Z,59.54
2019-04-16T20:59:22.357Z,59.33
2019-04-16T21:01:51.718Z,59.66
2019-04-16T21:04:21.073Z,59.73
2019-04-16T21:06:50.498Z,59.98
2019-04-16T21:09:20.107Z,60.09
2019-04-16T21:11:52.590Z,60.09
2019-04-16T21:14:21.814Z,60.21
2019-04-16T21:16:52.031Z,60.42
2019-04-16T21:19:23.694Z,59.89
2019-04-16T21:21:56.421Z,60.36
2019-04-16T21:24:26.101Z,60.32
2019-04-16T21:26:55.488Z,60.43
2019-04-16T21:29:33.570Z,60.81
2019-04-16T21:32:02.649Z,60.81
2019-04-16T21:34:38.733Z,60.81
2019-04-16T21:37:27.044Z,60.97
2019-04-16T21:39:59.006Z,61.31
2019-04-16T21:42:28.392Z,61.08
2019-04-16T21:44:58.084Z,60.88
2019-04-16T21:47:27.537Z,60.42
2019-04-16T21:49:56.950Z,60.40
2019-04-16T21:52:26.412Z,60.29
2019-04-16T21:54:56.565Z,60.41
2019-04-16T21:57:25.931Z,60.23
2019-04-16T21:59:58.150Z,60.59
2019-04-16T22:02:34.501Z,60.22
2019-04-16T22:05:02.988Z,60.43
2019-04-16T22:07:32.410Z,60.16
2019-04-16T22:10:02.153Z,60.29
2019-04-16T22:12:31.699Z,60.16
2019-04-16T22:15:02.535Z,60.44
2019-04-16T22:17:35.547Z,60.27
2019-04-16T22:20:04.514Z,60.06
2019-04-16T22:22:34.013Z,60.13
2019-04-16T22:25:03.401Z,60.38
2019-04-16T22:27:32.776Z,60.68
2019-04-16T22:30:02.177Z,60.16
2019-04-16T22:32:31.762Z,60.38
2019-04-16T22:35:01.152Z,60.37
2019-04-16T22:37:30.524Z,60.35
2019-04-16T22:40:13.511Z,59.92
2019-04-16T22:43:06.867Z,60.16
2019-04-16T22:45:53.440Z,60.21
2019-04-16T22:48:22.882Z,59.82
2019-04-16T22:50:52.262Z,59.66
2019-04-16T22:53:21.893Z,59.75
2019-04-16T22:55:56.379Z,59.82
2019-04-16T22:58:24.802Z,59.78
2019-04-16T23:00:58.400Z,60.65
2019-04-16T23:03:27.752Z,60.11
2019-04-16T23:05:57.172Z,59.98
2019-04-16T23:08:26.738Z,59.83
2019-04-16T23:10:56.111Z,59.72
2019-04-16T23:13:25.564Z,60.41
2019-04-16T23:15:54.993Z,60.41
2019-04-16T23:18:24.427Z,62.28
2019-04-16T23:20:53.851Z,62.21
2019-04-16T23:23:34.418Z,62.11
2019-04-16T23:26:03.823Z,61.57
2019-04-16T23:28:43.456Z,61.57
2019-04-16T23:31:14.411Z,61.55
2019-04-16T23:33:43.871Z,61.16
2019-04-16T23:36:16.558Z,63.98
2019-04-16T23:38:44.477Z,63.98
2019-04-16T23:41:16.625Z,64.44
2019-04-16T23:44:00.303Z,64.41
2019-04-16T23:46:54.745Z,64.75
2019-04-16T23:49:55.079Z,64.63
2019-04-16T23:52:31.874Z,64.98
2019-04-16T23:55:06.711Z,64.87
2019-04-16T23:57:56.788Z,65.27
